Time;durP1;ratioP1;P1;durP2;ratioP2;P2;SDS_P1;SDS_P2;PMS_P1;PMS_P2;Temp;Humidity;BMP_temperature;BMP_pressure;BME280_temperature;BME280_humidity;BME280_pressure;Samples;Min_cycle;Max_cycle;Signal;HPM_P1;HPM_P2
2022/05/09 00:00:31;;;;;;;10.18;3.83;;;6.20;99.90;;;;;;5039904;28;20094;-58
2022/05/09 00:02:57;;;;;;;15.10;4.05;;;6.20;99.90;;;;;;5056356;28;20036;-59
2022/05/09 00:05:25;;;;;;;10.93;4.47;;;6.20;99.90;;;;;;5074336;28;20040;-58
2022/05/09 00:07:52;;;;;;;8.18;4.20;;;6.20;99.90;;;;;;5073978;28;20036;-58
2022/05/09 00:10:21;;;;;;;11.35;4.22;;;6.20;99.90;;;;;;5074834;28;20044;-59
2022/05/09 00:12:47;;;;;;;7.78;3.40;;;6.20;99.90;;;;;;5056686;28;20036;-59
2022/05/09 00:15:14;;;;;;;10.00;4.32;;;6.10;99.90;;;;;;5055395;28;20037;-58
2022/05/09 00:17:40;;;;;;;9.98;4.40;;;6.10;99.90;;;;;;5074254;28;20056;-58
2022/05/09 00:20:07;;;;;;;10.43;3.88;;;6.10;99.90;;;;;;5055792;28;20123;-59
2022/05/09 00:22:46;;;;;;;7.35;3.55;;;6.10;99.90;;;;;;5056126;28;20045;-59
2022/05/09 00:25:13;;;;;;;10.80;4.05;;;6.00;99.90;;;;;;5074038;28;20033;-58
2022/05/09 00:27:38;;;;;;;8.00;3.33;;;6.00;99.90;;;;;;5073481;28;20079;-59
2022/05/09 00:30:05;;;;;;;10.00;4.15;;;6.00;99.90;;;;;;5073791;28;20122;-58
2022/05/09 00:32:31;;;;;;;9.77;4.35;;;6.00;99.90;;;;;;5055839;28;20043;-58
2022/05/09 00:34:56;;;;;;;11.15;3.83;;;6.00;99.90;;;;;;5055297;28;20123;-59
2022/05/09 00:37:23;;;;;;;10.23;4.25;;;6.00;99.90;;;;;;5055797;28;20389;-58
2022/05/09 00:39:48;;;;;;;10.27;4.05;;;5.90;99.90;;;;;;5073437;28;20108;-58
2022/05/09 00:42:14;;;;;;;10.60;4.20;;;5.80;99.90;;;;;;5072925;28;20533;-58
2022/05/09 00:44:40;;;;;;;13.13;4.28;;;5.80;99.90;;;;;;5074117;28;20039;-58
2022/05/09 00:47:06;;;;;;;12.35;5.05;;;5.80;99.90;;;;;;5073420;28;20114;-58
2022/05/09 00:49:45;;;;;;;8.35;4.15;;;5.80;99.90;;;;;;5073140;28;20044;-58
2022/05/09 00:52:30;;;;;;;8.05;3.78;;;5.80;99.90;;;;;;5055842;28;20052;-59
2022/05/09 00:55:01;;;;;;;8.25;4.13;;;5.80;99.90;;;;;;5073553;28;20052;-58
2022/05/09 00:57:52;;;;;;;12.60;4.55;;;5.70;99.90;;;;;;5054493;28;20091;-59
2022/05/09 01:00:21;;;;;;;12.82;4.82;;;5.70;99.90;;;;;;5055913;28;20131;-59
2022/05/09 01:02:50;;;;;;;12.27;5.03;;;5.70;99.90;;;;;;5038297;28;20040;-58
2022/05/09 01:05:16;;;;;;;11.35;4.88;;;5.70;99.90;;;;;;5073216;28;20040;-58
2022/05/09 01:07:43;;;;;;;11.27;3.83;;;5.70;99.90;;;;;;5055949;28;20082;-58
2022/05/09 01:10:15;;;;;;;7.38;3.40;;;5.70;99.90;;;;;;5072604;28;20587;-58
2022/05/09 01:12:44;;;;;;;8.80;3.95;;;5.70;99.90;;;;;;5055592;28;20083;-58
2022/05/09 01:15:12;;;;;;;13.30;3.08;;;5.60;99.90;;;;;;5072687;28;20112;-58
2022/05/09 01:17:40;;;;;;;8.68;3.70;;;5.60;99.90;;;;;;5072516;28;20053;-58
2022/05/09 01:20:08;;;;;;;8.43;3.88;;;5.60;99.90;;;;;;5072344;28;20552;-58
2022/05/09 01:22:35;;;;;;;9.30;4.03;;;5.60;99.90;;;;;;5038519;28;20055;-58
2022/05/09 01:25:04;;;;;;;8.10;3.40;;;5.60;99.90;;;;;;5054445;28;20040;-59
2022/05/09 01:27:31;;;;;;;14.00;5.00;;;5.50;99.90;;;;;;5054748;28;20037;-59
2022/05/09 01:30:08;;;;;;;9.40;3.67;;;5.50;99.90;;;;;;5072772;28;20115;-58
2022/05/09 01:32:49;;;;;;;12.40;3.92;;;5.50;99.90;;;;;;5072278;28;20048;-58
2022/05/09 01:35:23;;;;;;;10.00;4.03;;;5.40;99.90;;;;;;5055077;28;20390;-58
2022/05/09 01:38:14;;;;;;;11.20;4.90;;;5.40;99.90;;;;;;5072827;28;20398;-58
2022/05/09 01:40:39;;;;;;;6.07;3.55;;;5.40;99.90;;;;;;5025572;28;20139;-58
2022/05/09 01:43:05;;;;;;;7.70;3.83;;;5.40;99.90;;;;;;5072202;28;20120;-58
2022/05/09 01:45:31;;;;;;;10.35;4.32;;;5.30;99.90;;;;;;5072254;28;20036;-58
2022/05/09 01:50:49;;;;;;;10.55;3.47;;;5.30;99.90;;;;;;5071628;28;20044;-58
2022/05/09 01:53:15;;;;;;;8.75;3.80;;;5.30;99.90;;;;;;5053736;28;20040;-58
2022/05/09 01:55:41;;;;;;;11.57;3.90;;;5.30;99.90;;;;;;5054965;28;20047;-58
2022/05/09 01:58:06;;;;;;;11.63;3.60;;;5.30;99.90;;;;;;5054071;28;20477;-58
2022/05/09 02:00:35;;;;;;;8.93;4.28;;;5.30;99.90;;;;;;5054185;28;20037;-58
2022/05/09 02:03:00;;;;;;;8.45;3.65;;;5.30;99.90;;;;;;5072859;28;20430;-58
2022/05/09 02:05:26;;;;;;;9.57;3.85;;;5.30;99.90;;;;;;5054264;28;20068;-59
2022/05/09 02:07:53;;;;;;;8.77;3.15;;;5.30;99.90;;;;;;5036818;28;20036;-58
2022/05/09 02:10:18;;;;;;;9.70;4.22;;;5.30;99.90;;;;;;5054739;28;20040;-58
2022/05/09 02:12:44;;;;;;;9.27;4.00;;;5.30;99.90;;;;;;5072537;28;20124;-59
2022/05/09 02:15:10;;;;;;;10.68;3.88;;;5.20;99.90;;;;;;5071430;28;20032;-58
2022/05/09 02:17:37;;;;;;;8.07;3.30;;;5.20;99.90;;;;;;5054210;28;20052;-58
2022/05/09 02:20:04;;;;;;;6.97;4.50;;;5.20;99.90;;;;;;5071911;28;20055;-58
2022/05/09 02:22:29;;;;;;;9.32;4.50;;;5.20;99.90;;;;;;5071320;28;20032;-58
2022/05/09 02:24:55;;;;;;;8.32;3.92;;;5.10;99.90;;;;;;5072137;28;20040;-58
2022/05/09 02:27:22;;;;;;;11.55;4.63;;;5.10;99.90;;;;;;5071708;28;20044;-58
2022/05/09 02:29:47;;;;;;;9.30;3.65;;;5.10;99.90;;;;;;5072309;28;20401;-58
2022/05/09 02:32:15;;;;;;;13.52;3.47;;;5.10;99.90;;;;;;5071714;28;20044;-58
2022/05/09 02:34:40;;;;;;;11.05;3.45;;;5.10;99.90;;;;;;5071253;28;20045;-58
2022/05/09 02:37:06;;;;;;;8.70;3.97;;;5.00;99.90;;;;;;5053434;28;20124;-58
2022/05/09 02:39:32;;;;;;;9.50;3.33;;;5.00;99.90;;;;;;5072099;28;20036;-58
2022/05/09 02:41:59;;;;;;;12.20;4.07;;;5.00;99.90;;;;;;5071022;28;20079;-58
2022/05/09 02:44:25;;;;;;;15.30;4.97;;;5.00;99.90;;;;;;5071839;28;20040;-58
2022/05/09 02:46:51;;;;;;;13.45;5.07;;;4.90;99.90;;;;;;5071768;28;20128;-58
2022/05/09 02:49:17;;;;;;;10.65;4.45;;;5.00;99.90;;;;;;5036810;28;20473;-58
2022/05/09 02:51:44;;;;;;;9.98;3.55;;;4.90;99.90;;;;;;5054214;28;20048;-58
2022/05/09 02:54:10;;;;;;;8.95;4.45;;;4.90;99.90;;;;;;5053663;28;20048;-58
2022/05/09 02:56:35;;;;;;;10.63;4.05;;;4.90;99.90;;;;;;5070932;28;20070;-58
2022/05/09 02:59:01;;;;;;;9.80;3.83;;;4.90;99.90;;;;;;5072249;28;20039;-59
2022/05/09 03:01:26;;;;;;;11.80;3.70;;;4.90;99.90;;;;;;5072128;28;20036;-58
2022/05/09 03:06:36;;;;;;;11.43;4.07;;;4.90;99.90;;;;;;5075974;28;20055;-58
2022/05/09 03:09:02;;;;;;;8.65;3.72;;;4.80;99.90;;;;;;5075521;28;20040;-58
2022/05/09 03:11:28;;;;;;;7.20;3.17;;;4.80;99.90;;;;;;5074799;28;20051;-58
2022/05/09 03:13:54;;;;;;;7.95;3.45;;;4.80;99.90;;;;;;5057538;28;20045;-58
2022/05/09 03:16:19;;;;;;;11.98;3.80;;;4.90;99.90;;;;;;5074628;28;20056;-58
2022/05/09 03:18:45;;;;;;;7.25;3.30;;;4.80;99.90;;;;;;5075221;28;20041;-58
2022/05/09 03:21:11;;;;;;;9.88;4.55;;;4.90;99.90;;;;;;5074795;28;20074;-59
2022/05/09 03:23:37;;;;;;;10.43;3.50;;;5.50;99.90;;;;;;5040165;28;20076;-59
2022/05/09 03:26:02;;;;;;;12.35;4.18;;;5.70;99.90;;;;;;5075067;28;20044;-58
2022/05/09 03:28:29;;;;;;;9.35;4.28;;;4.90;99.90;;;;;;5057418;28;20045;-59
2022/05/09 03:30:57;;;;;;;10.43;3.70;;;4.90;99.90;;;;;;5036371;28;20040;-58
2022/05/09 03:33:26;;;;;;;12.07;4.35;;;4.90;99.90;;;;;;5037253;28;20040;-58
2022/05/09 03:35:53;;;;;;;14.95;4.30;;;4.90;99.90;;;;;;5055182;28;20421;-58
2022/05/09 03:38:18;;;;;;;11.32;3.80;;;4.90;99.90;;;;;;5036366;28;20041;-58
2022/05/09 03:40:44;;;;;;;9.50;4.20;;;4.90;99.90;;;;;;5038060;28;20136;-58
2022/05/09 03:43:11;;;;;;;10.93;4.53;;;4.90;99.90;;;;;;5037187;28;20037;-59
2022/05/09 03:45:38;;;;;;;9.30;3.95;;;4.90;99.90;;;;;;5029141;28;20036;-58
2022/05/09 03:48:04;;;;;;;10.00;4.07;;;4.90;99.90;;;;;;5057111;28;20048;-58
2022/05/09 03:50:30;;;;;;;11.30;5.63;;;4.90;99.90;;;;;;5075153;28;20539;-58
2022/05/09 03:52:56;;;;;;;10.13;4.80;;;4.90;99.90;;;;;;5073989;28;20112;-58
2022/05/09 03:55:21;;;;;;;9.82;4.47;;;4.90;99.90;;;;;;5056719;28;20039;-58
2022/05/09 03:57:52;;;;;;;8.88;4.15;;;4.80;99.90;;;;;;5074803;28;20040;-58
2022/05/09 04:00:23;;;;;;;9.07;5.10;;;4.80;99.90;;;;;;5073845;28;20041;-58
2022/05/09 04:02:48;;;;;;;9.82;4.15;;;4.80;99.90;;;;;;5074787;28;20051;-58
2022/05/09 04:05:17;;;;;;;10.70;4.10;;;4.80;99.90;;;;;;5056669;28;20044;-58
2022/05/09 04:07:48;;;;;;;11.55;4.57;;;4.80;99.90;;;;;;5056160;28;20481;-58
2022/05/09 04:10:17;;;;;;;11.30;4.47;;;4.80;99.90;;;;;;5074536;28;20040;-58
2022/05/09 04:12:43;;;;;;;12.68;4.88;;;4.80;99.90;;;;;;5041300;28;20048;-58
2022/05/09 04:17:54;;;;;;;11.52;4.97;;;4.80;99.90;;;;;;5054552;28;20121;-58
2022/05/09 04:20:21;;;;;;;10.48;4.68;;;4.80;99.90;;;;;;5053732;28;20075;-58
2022/05/09 04:22:46;;;;;;;11.23;5.45;;;4.80;99.90;;;;;;5074390;28;20048;-58
2022/05/09 04:25:12;;;;;;;9.43;4.55;;;4.80;99.90;;;;;;5073760;28;20037;-58
2022/05/09 04:27:38;;;;;;;11.13;5.70;;;4.90;99.90;;;;;;5054448;28;20086;-58
2022/05/09 04:30:07;;;;;;;12.20;5.32;;;4.90;99.90;;;;;;5074057;28;20067;-58
2022/05/09 04:32:34;;;;;;;10.07;4.80;;;4.90;99.90;;;;;;5056863;28;20044;-58
2022/05/09 04:34:59;;;;;;;11.85;5.65;;;5.00;99.90;;;;;;5055362;28;20076;-58
2022/05/09 04:37:25;;;;;;;10.90;5.00;;;5.00;99.90;;;;;;5055988;28;20424;-58
2022/05/09 04:39:54;;;;;;;14.48;5.28;;;5.00;99.90;;;;;;5072872;28;20033;-58
2022/05/09 04:42:20;;;;;;;12.73;5.53;;;5.10;99.90;;;;;;5073251;28;20036;-58
2022/05/09 04:44:46;;;;;;;10.43;5.30;;;5.10;99.90;;;;;;5073817;28;20163;-58
2022/05/09 04:47:13;;;;;;;12.07;5.72;;;5.30;99.90;;;;;;5073517;28;20049;-58
2022/05/09 04:49:39;;;;;;;13.52;6.07;;;5.30;99.90;;;;;;5073153;28;20097;-58
2022/05/09 04:52:05;;;;;;;16.80;5.57;;;5.40;99.90;;;;;;5056158;28;20374;-58
2022/05/09 04:54:31;;;;;;;17.42;6.65;;;5.50;99.90;;;;;;5056210;28;20140;-58
2022/05/09 04:56:57;;;;;;;15.15;6.57;;;5.60;99.90;;;;;;5072928;28;20489;-58
2022/05/09 04:59:22;;;;;;;21.30;7.32;;;5.70;99.90;;;;;;5055534;28;20072;-58
2022/05/09 05:01:48;;;;;;;11.77;5.97;;;5.70;99.90;;;;;;5074050;28;20044;-58
2022/05/09 05:04:16;;;;;;;17.00;6.40;;;5.80;99.90;;;;;;5053450;28;20048;-58
2022/05/09 05:06:41;;;;;;;15.02;6.55;;;5.90;99.90;;;;;;5073562;28;20056;-58
2022/05/09 05:09:07;;;;;;;12.48;6.30;;;6.00;99.90;;;;;;5072358;28;20036;-58
2022/05/09 05:11:32;;;;;;;13.35;6.05;;;6.10;99.90;;;;;;5054273;28;20092;-58
2022/05/09 05:13:58;;;;;;;17.23;6.35;;;6.20;99.90;;;;;;5073020;28;20036;-58
2022/05/09 05:16:59;;;;;;;12.90;5.85;;;6.40;99.90;;;;;;5072226;28;20044;-58
2022/05/09 05:19:09;;;;;;;;;;;6.50;99.90;;;;;;5055156;28;20074;-58
2022/05/09 05:21:35;;;;;;;15.13;6.10;;;6.60;99.90;;;;;;5055496;28;19993;-58
2022/05/09 05:24:00;;;;;;;13.38;6.00;;;6.70;99.90;;;;;;5072505;28;20035;-58
2022/05/09 05:26:26;;;;;;;14.40;6.38;;;6.80;99.90;;;;;;5054825;28;20044;-58
2022/05/09 05:28:51;;;;;;;15.13;6.10;;;7.00;99.90;;;;;;5072825;28;20122;-58
2022/05/09 05:31:21;;;;;;;15.85;6.68;;;7.10;99.90;;;;;;5054432;28;20052;-58
2022/05/09 05:33:47;;;;;;;15.45;6.57;;;7.30;99.90;;;;;;5072837;28;20397;-58
2022/05/09 05:36:14;;;;;;;19.25;7.38;;;7.40;99.90;;;;;;5072232;28;20181;-58
2022/05/09 05:38:39;;;;;;;16.08;6.05;;;7.50;99.90;;;;;;5072289;28;20052;-58
2022/05/09 05:41:05;;;;;;;14.88;6.80;;;7.60;99.90;;;;;;5072536;28;20033;-58
2022/05/09 05:43:31;;;;;;;14.15;6.05;;;7.70;99.90;;;;;;5072883;28;20386;-58
2022/05/09 05:45:57;;;;;;;16.70;6.32;;;7.80;99.90;;;;;;5054107;28;20489;-58
2022/05/09 05:48:24;;;;;;;15.07;6.82;;;;;;;;;;5054511;28;20052;-58
2022/05/09 05:50:50;;;;;;;13.70;6.32;;;;;;;;;;5054998;28;20122;-58
2022/05/09 05:53:16;;;;;;;15.02;6.63;;;8.30;99.90;;;;;;5054203;28;20246;-58
2022/05/09 05:55:42;;;;;;;15.10;6.10;;;8.40;99.90;;;;;;5071418;28;20115;-58
2022/05/09 05:58:08;;;;;;;14.02;6.50;;;8.40;99.90;;;;;;5053683;28;20145;-58
2022/05/09 06:00:33;;;;;;;18.40;6.13;;;8.60;99.90;;;;;;5054624;28;20044;-59
2022/05/09 06:02:59;;;;;;;12.40;5.90;;;8.70;99.90;;;;;;5072347;28;20036;-58
2022/05/09 06:05:25;;;;;;;12.32;6.30;;;8.80;99.90;;;;;;5070463;28;20127;-58
2022/05/09 06:07:55;;;;;;;19.88;6.30;;;8.90;99.90;;;;;;5054548;28;20048;-59
2022/05/09 06:10:22;;;;;;;14.73;5.95;;;9.00;99.90;;;;;;5053066;28;20033;-59
2022/05/09 06:12:48;;;;;;;14.13;6.38;;;9.10;99.90;;;;;;5053182;28;20040;-58
2022/05/09 06:15:28;;;;;;;13.32;7.10;;;9.20;99.90;;;;;;5071386;28;20044;-59
2022/05/09 06:17:56;;;;;;;17.02;6.55;;;9.40;99.90;;;;;;5070496;28;20058;-58
2022/05/09 06:20:22;;;;;;;12.30;5.70;;;9.50;99.90;;;;;;5059465;28;20049;-59
2022/05/09 06:22:48;;;;;;;16.38;6.10;;;10.40;99.90;;;;;;5051024;28;20125;-59
2022/05/09 06:25:17;;;;;;;17.25;6.60;;;9.70;99.90;;;;;;5052240;28;20072;-58
2022/05/09 06:27:43;;;;;;;21.95;6.60;;;9.80;99.90;;;;;;5045275;28;20098;-59
2022/05/09 06:30:11;;;;;;;12.30;5.35;;;10.10;99.90;;;;;;5069734;28;20036;-59
2022/05/09 06:32:37;;;;;;;13.90;6.60;;;10.10;99.90;;;;;;5068802;28;20090;-59
2022/05/09 06:35:05;;;;;;;18.67;7.18;;;10.20;99.90;;;;;;5050166;28;20036;-59
2022/05/09 06:37:34;;;;;;;12.40;6.43;;;10.00;99.90;;;;;;5051219;28;20080;-58
2022/05/09 06:40:00;;;;;;;13.70;6.32;;;10.50;99.90;;;;;;5050603;28;20028;-59
2022/05/09 06:42:27;;;;;;;14.70;6.03;;;10.70;99.90;;;;;;5049603;28;20123;-59
2022/05/09 06:44:53;;;;;;;13.63;5.70;;;10.80;99.90;;;;;;5043126;28;20068;-59
2022/05/09 06:47:19;;;;;;;15.95;5.63;;;10.90;99.90;;;;;;5069248;28;20066;-59
2022/05/09 06:49:45;;;;;;;13.40;5.15;;;11.00;99.90;;;;;;5056959;28;20044;-59
2022/05/09 06:52:10;;;;;;;20.17;6.45;;;11.10;99.90;;;;;;5067577;28;20037;-59
2022/05/09 06:54:36;;;;;;;15.95;4.38;;;11.20;99.90;;;;;;5038135;28;20045;-59
2022/05/09 06:57:01;;;;;;;14.30;5.70;;;11.70;99.90;;;;;;5051483;28;20048;-59
2022/05/09 06:59:27;;;;;;;15.20;5.18;;;11.40;99.90;;;;;;5069624;28;20080;-59
2022/05/09 07:01:53;;;;;;;11.98;5.32;;;11.40;99.90;;;;;;5050325;28;20043;-58
2022/05/09 07:04:19;;;;;;;18.48;5.47;;;;;;;;;;5051599;28;20083;-59
2022/05/09 07:06:45;;;;;;;15.20;5.30;;;;;;;;;;5036258;28;20057;-59
2022/05/09 07:09:11;;;;;;;20.35;6.13;;;11.90;99.90;;;;;;5018591;28;20072;-59
2022/05/09 07:11:38;;;;;;;9.90;4.63;;;11.90;99.90;;;;;;5051626;28;20064;-59
2022/05/09 07:14:04;;;;;;;19.48;6.20;;;12.00;99.90;;;;;;5068978;28;20087;-59
2022/05/09 07:16:29;;;;;;;13.02;5.57;;;12.00;99.90;;;;;;5043668;28;20552;-59
2022/05/09 07:18:55;;;;;;;12.15;5.35;;;12.10;99.90;;;;;;5029289;28;20119;-59
2022/05/09 07:21:20;;;;;;;16.20;4.72;;;12.20;99.90;;;;;;5028333;28;20121;-59
2022/05/09 07:23:46;;;;;;;12.80;5.10;;;12.60;99.90;;;;;;5027499;28;20343;-59
2022/05/09 07:26:12;;;;;;;17.15;5.63;;;12.40;99.90;;;;;;5027524;28;20049;-59
2022/05/09 07:28:40;;;;;;;17.55;5.40;;;12.50;99.90;;;;;;5028171;28;20052;-59
2022/05/09 07:31:06;;;;;;;14.32;5.38;;;12.60;99.90;;;;;;5027979;28;20049;-59
2022/05/09 07:33:32;;;;;;;12.93;5.03;;;12.70;99.90;;;;;;5028200;28;20183;-59
2022/05/09 07:35:58;;;;;;;13.65;5.70;;;12.70;99.90;;;;;;5027576;28;20054;-59
2022/05/09 07:38:24;;;;;;;13.52;5.63;;;12.80;99.90;;;;;;5027689;28;20670;-59
2022/05/09 07:40:50;;;;;;;14.10;6.03;;;;;;;;;;5027324;28;20068;-59
2022/05/09 07:43:17;;;;;;;17.00;5.03;;;;;;;;;;5017310;28;20087;-59
2022/05/09 07:45:44;;;;;;;14.48;5.78;;;;;;;;;;5024522;28;20046;-59
2022/05/09 07:48:11;;;;;;;14.40;5.20;;;;;;;;;;5026017;28;20072;-59
2022/05/09 07:50:38;;;;;;;10.90;4.88;;;;;;;;;;5028612;28;20072;-59
2022/05/09 07:53:11;;;;;;;14.77;5.15;;;;;;;;;;5030548;28;20041;-59
2022/05/09 07:55:39;;;;;;;12.60;4.47;;;;;;;;;;5028894;28;20055;-59
2022/05/09 07:58:05;;;;;;;13.40;4.88;;;;;;;;;;5028533;28;20041;-59
2022/05/09 08:00:31;;;;;;;17.08;5.97;;;;;;;;;;5003596;28;20068;-59
2022/05/09 08:02:57;;;;;;;13.25;4.97;;;;;;;;;;5029913;28;20037;-59
2022/05/09 08:05:23;;;;;;;12.85;6.00;;;;;;;;;;5030902;28;20049;-59
2022/05/09 08:07:49;;;;;;;19.00;5.55;;;;;;;;;;5029061;28;20088;-59
2022/05/09 08:10:16;;;;;;;13.60;5.57;;;;;;;;;;5032320;28;20044;-59
2022/05/09 08:12:43;;;;;;;17.35;5.45;;;;;;;;;;5032131;28;20041;-59
2022/05/09 08:15:12;;;;;;;11.82;5.20;;;;;;;;;;5044415;28;21066;-58
2022/05/09 08:17:38;;;;;;;14.35;4.80;;;;;;;;;;5017910;28;20053;-59
2022/05/09 08:20:05;;;;;;;12.30;5.68;;;;;;;;;;5047706;28;20045;-58
2022/05/09 08:22:32;;;;;;;12.02;5.07;;;;;;;;;;5052798;28;20444;-59
2022/05/09 08:24:58;;;;;;;10.43;4.75;;;14.20;99.90;;;;;;5053908;28;20049;-58
2022/05/09 08:27:24;;;;;;;12.63;4.88;;;;;;;;;;5047498;28;20049;-59
2022/05/09 08:29:54;;;;;;;13.50;5.10;;;14.90;99.90;;;;;;5052661;28;20043;-59
2022/05/09 08:32:20;;;;;;;14.30;4.65;;;14.70;99.90;;;;;;5052183;28;20136;-58
2022/05/09 08:34:45;;;;;;;14.60;4.75;;;15.10;99.90;;;;;;5053839;28;20047;-59
2022/05/09 08:37:18;;;;;;;10.95;4.55;;;;;;;;;;5052966;28;20041;-59
2022/05/09 08:39:44;;;;;;;14.48;4.88;;;;;;;;;;5054456;28;20052;-59
2022/05/09 08:42:25;;;;;;;12.50;4.35;;;15.30;99.90;;;;;;5052961;28;20037;-59
2022/05/09 08:45:12;;;;;;;13.65;4.30;;;15.30;99.90;;;;;;5047635;28;20041;-58
2022/05/09 08:48:19;;;;;;;14.40;4.60;;;15.40;99.90;;;;;;5053099;28;20136;-58
2022/05/09 08:50:47;;;;;;;12.88;4.88;;;15.40;99.90;;;;;;5052160;28;20103;-58
2022/05/09 08:53:19;;;;;;;13.32;4.93;;;;;;;;;;5052872;28;20044;-58
2022/05/09 08:55:45;;;;;;;13.30;4.55;;;15.70;99.90;;;;;;5052730;28;20514;-58
2022/05/09 08:58:28;;;;;;;11.88;4.50;;;15.70;99.90;;;;;;5052937;28;20048;-59
2022/05/09 09:00:55;;;;;;;14.85;4.50;;;15.80;99.90;;;;;;5051361;28;20040;-60
2022/05/09 09:03:30;;;;;;;13.73;4.70;;;16.20;99.90;;;;;;5051327;28;20068;-59
2022/05/09 09:06:02;;;;;;;;;;;16.10;99.90;;;;;;5052208;28;20037;-59
2022/05/09 09:08:47;;;;;;;9.82;3.83;;;16.30;99.90;;;;;;5049859;28;20293;-60
2022/05/09 09:11:21;;;;;;;14.18;4.85;;;16.30;99.90;;;;;;5038066;28;20048;-60
2022/05/09 09:14:10;;;;;;;10.73;4.18;;;16.40;99.90;;;;;;5053541;28;20490;-60
2022/05/09 09:17:14;;;;;;;12.63;4.38;;;16.50;99.90;;;;;;5044857;28;20498;-60
2022/05/09 09:19:52;;;;;;;11.60;3.53;;;16.60;99.90;;;;;;5052386;28;20421;-60
2022/05/09 09:22:41;;;;;;;8.50;2.53;;;;;;;;;;5052118;28;20041;-60
2022/05/09 09:25:21;;;;;;;15.32;3.88;;;;;;;;;;5041364;28;20454;-60
2022/05/09 09:27:48;;;;;;;11.55;3.58;;;;;;;;;;5051591;28;20044;-59
2022/05/09 09:30:16;;;;;;;15.02;4.43;;;;;;;;;;5051973;28;20095;-60
2022/05/09 09:32:45;;;;;;;17.80;3.67;;;;;;;;;;5052123;28;20045;-60
2022/05/09 09:35:11;;;;;;;14.43;3.42;;;;;;;;;;5050628;28;20076;-60
2022/05/09 09:37:54;;;;;;;14.52;4.20;;;;;;;;;;5051108;28;20058;-60
2022/05/09 09:40:21;;;;;;;14.73;3.50;;;17.40;90.80;;;;;;5051583;28;20036;-60
2022/05/09 09:42:50;;;;;;;11.65;3.92;;;17.40;92.80;;;;;;5052982;28;20041;-60
2022/05/09 09:45:28;;;;;;;10.10;3.30;;;17.50;92.30;;;;;;5050651;28;20041;-60
2022/05/09 09:48:11;;;;;;;7.75;3.30;;;17.60;90.70;;;;;;5051967;28;20045;-60
2022/05/09 09:50:49;;;;;;;10.38;2.88;;;17.60;88.90;;;;;;5050213;28;20082;-60
2022/05/09 09:53:34;;;;;;;8.30;3.30;;;17.60;88.80;;;;;;5050973;28;20057;-60
2022/05/09 09:56:20;;;;;;;9.88;3.15;;;17.50;87.50;;;;;;5050096;28;20098;-59
2022/05/09 09:58:46;;;;;;;9.63;3.20;;;17.60;86.10;;;;;;5051880;28;20064;-60
2022/05/09 10:01:22;;;;;;;9.43;3.40;;;17.60;87.10;;;;;;5050924;28;20041;-61
2022/05/09 10:04:09;;;;;;;13.70;3.83;;;17.80;87.50;;;;;;5051200;28;20037;-60
2022/05/09 10:06:36;;;;;;;8.32;3.75;;;;;;;;;;5050836;28;20045;-60
2022/05/09 10:09:09;;;;;;;13.15;5.05;;;18.20;99.90;;;;;;5050638;28;20529;-61
2022/05/09 10:11:35;;;;;;;14.93;4.03;;;18.10;83.90;;;;;;5047117;28;20453;-59
2022/05/09 10:14:04;;;;;;;8.85;3.40;;;18.10;83.50;;;;;;5050678;28;20508;-59
2022/05/09 10:16:41;;;;;;;9.80;2.83;;;18.10;83.40;;;;;;5033786;28;20821;-59
2022/05/09 10:19:13;;;;;;;12.30;3.22;;;18.10;83.20;;;;;;5049805;28;20033;-59
2022/05/09 10:24:48;;;;;;;12.10;3.53;;;18.30;79.90;;;;;;5052199;28;20048;-59
2022/05/09 10:27:23;;;;;;;10.02;3.17;;;18.30;78.50;;;;;;5051287;28;20495;-59
2022/05/09 10:29:51;;;;;;;11.93;3.30;;;18.30;75.90;;;;;;5050793;28;20057;-60
2022/05/09 10:32:23;;;;;;;10.00;3.33;;;18.20;76.40;;;;;;5051957;28;20041;-60
2022/05/09 10:35:31;;;;;;;10.48;3.20;;;18.20;77.40;;;;;;5051724;28;20106;-59
2022/05/09 10:37:57;;;;;;;10.82;3.80;;;18.30;76.10;;;;;;5040999;28;20102;-59
2022/05/09 10:40:30;;;;;;;11.48;3.35;;;;;;;;;;5049702;28;20044;-59
2022/05/09 10:43:05;;;;;;;9.65;3.60;;;;;;;;;;5050615;28;20049;-60
2022/05/09 10:45:38;;;;;;;9.80;3.22;;;18.70;99.90;;;;;;5050925;28;20490;-59
2022/05/09 10:48:14;;;;;;;7.78;2.85;;;18.70;75.60;;;;;;5050059;28;20044;-59
2022/05/09 10:50:57;;;;;;;11.15;3.30;;;18.70;74.10;;;;;;5051054;28;20040;-59
2022/05/09 10:53:38;;;;;;;8.63;3.55;;;;;;;;;;5051965;28;20033;-60
2022/05/09 10:56:07;;;;;;;11.68;3.28;;;;;;;;;;5051603;28;20036;-60
2022/05/09 10:58:43;;;;;;;7.78;3.08;;;;;;;;;;5050949;28;20041;-60
2022/05/09 11:01:12;;;;;;;9.85;3.28;;;;;;;;;;5050668;28;20045;-60
2022/05/09 11:03:39;;;;;;;9.00;2.67;;;;;;;;;;5050665;28;20037;-60
2022/05/09 11:06:18;;;;;;;10.52;2.75;;;;;;;;;;5051432;28;20041;-60
2022/05/09 11:08:44;;;;;;;8.48;2.90;;;;;;;;;;5051097;28;20044;-60
2022/05/09 11:11:19;;;;;;;9.60;3.20;;;;;;;;;;5049841;28;20433;-59
2022/05/09 11:14:15;;;;;;;10.80;3.33;;;19.50;96.70;;;;;;5050686;28;20084;-59
2022/05/09 11:16:40;;;;;;;;;;;19.60;99.90;;;;;;5056082;28;20053;-59
2022/05/09 11:19:44;;;;;;;11.20;2.83;;;19.50;68.00;;;;;;5053476;28;19917;-59
2022/05/09 11:22:18;;;;;;;11.02;3.30;;;19.60;98.90;;;;;;5052844;28;20048;-59
2022/05/09 11:24:54;;;;;;;9.20;2.80;;;19.60;65.60;;;;;;5057736;28;20044;-59
2022/05/09 11:27:43;;;;;;;9.23;3.47;;;19.70;94.20;;;;;;5040948;28;20044;-60
2022/05/09 11:30:29;;;;;;;10.43;3.40;;;19.70;97.20;;;;;;5073818;28;20059;-60
2022/05/09 11:33:01;;;;;;;10.40;3.25;;;19.70;63.10;;;;;;5057573;28;20394;-60
2022/05/09 11:35:31;;;;;;;12.43;3.15;;;19.80;64.10;;;;;;5074989;28;20041;-60
2022/05/09 11:38:16;;;;;;;8.20;2.67;;;;;;;;;;5056331;28;20046;-60
2022/05/09 11:40:42;;;;;;;;;;;;;;;;;;5075616;28;20047;-60
2022/05/09 11:43:32;;;;;;;9.77;2.90;;;;;;;;;;5056147;28;19916;-60
2022/05/09 11:46:17;;;;;;;8.88;2.80;;;;;;;;;;5074820;28;20049;-60
2022/05/09 11:48:53;;;;;;;6.75;2.15;;;;;;;;;;5040443;28;20047;-60
2022/05/09 11:51:41;;;;;;;11.40;3.15;;;;;;;;;;5073658;28;20045;-60
2022/05/09 11:54:09;;;;;;;12.00;3.00;;;;;;;;;;5050558;28;20044;-62
2022/05/09 11:56:37;;;;;;;8.82;3.28;;;;;;;;;;5055982;28;20181;-62
2022/05/09 11:59:05;;;;;;;7.50;2.63;;;;;;;;;;5055637;28;20119;-62
2022/05/09 12:01:50;;;;;;;10.40;3.00;;;;;;;;;;5041878;28;20067;-62
2022/05/09 12:04:41;;;;;;;10.25;2.97;;;20.90;92.60;;;;;;5072839;28;20094;-62
2022/05/09 12:07:26;;;;;;;9.82;2.42;;;21.00;63.30;;;;;;5029705;28;20053;-62
2022/05/09 12:09:57;;;;;;;12.25;3.60;;;21.00;95.60;;;;;;5052409;28;20428;-63
2022/05/09 12:12:43;;;;;;;8.45;2.65;;;;;;;;;;5048067;28;20801;-62
2022/05/09 12:15:29;;;;;;;9.07;3.05;;;21.10;56.00;;;;;;5053753;28;20060;-62
2022/05/09 12:17:57;;;;;;;8.90;3.00;;;21.20;56.70;;;;;;5054137;28;20134;-62
2022/05/09 12:20:29;;;;;;;6.82;2.33;;;;;;;;;;5072041;28;20040;-62
2022/05/09 12:22:56;;;;;;;9.50;3.05;;;21.10;64.40;;;;;;5053821;28;20047;-61
2022/05/09 12:25:41;;;;;;;7.18;3.00;;;21.10;72.00;;;;;;5053563;28;20501;-60
2022/05/09 12:28:16;;;;;;;8.77;3.33;;;;;;;;;;5053766;28;20059;-60
2022/05/09 12:30:48;;;;;;;7.65;2.58;;;21.30;54.50;;;;;;5054063;28;20121;-60
2022/05/09 12:33:33;;;;;;;11.90;3.03;;;;;;;;;;5071004;28;20040;-60
2022/05/09 12:36:20;;;;;;;10.77;2.95;;;21.40;64.10;;;;;;5070616;28;20563;-60
2022/05/09 12:38:49;;;;;;;8.82;2.72;;;21.40;63.30;;;;;;5051944;28;20111;-60
2022/05/09 12:41:28;;;;;;;7.15;2.35;;;21.50;57.30;;;;;;5051164;28;20156;-61
2022/05/09 12:43:56;;;;;;;7.82;2.95;;;21.40;92.40;;;;;;5062547;28;20048;-61
2022/05/09 12:46:25;;;;;;;8.07;2.92;;;21.40;63.70;;;;;;5070791;28;20797;-61
2022/05/09 12:48:53;;;;;;;8.65;3.40;;;;;;;;;;5051665;28;20088;-61
2022/05/09 12:51:20;;;;;;;9.55;2.55;;;;;;;;;;5053697;28;20048;-61
2022/05/09 12:53:46;;;;;;;9.90;2.95;;;;;;;;;;5053393;28;20044;-61
2022/05/09 12:56:14;;;;;;;7.32;2.25;;;;;;;;;;5071223;28;20071;-61
2022/05/09 12:58:42;;;;;;;7.85;2.63;;;;;;;;;;5053763;28;20083;-61
2022/05/09 13:01:17;;;;;;;13.40;2.80;;;;;;;;;;5052231;28;20072;-61
2022/05/09 13:03:43;;;;;;;6.13;2.20;;;;;;;;;;5053447;28;20052;-61
2022/05/09 13:06:10;;;;;;;6.15;2.90;;;;;;;;;;5070871;28;20115;-62
2022/05/09 13:08:38;;;;;;;11.40;3.22;;;22.30;54.10;;;;;;5053035;28;20080;-62
2022/05/09 13:11:14;;;;;;;7.38;2.97;;;22.30;53.70;;;;;;5070788;28;20090;-62
2022/05/09 13:13:46;;;;;;;13.98;2.78;;;22.40;54.60;;;;;;5054766;28;20043;-61
2022/05/09 13:16:20;;;;;;;9.52;3.10;;;22.50;53.90;;;;;;5069105;28;20461;-63
2022/05/09 13:18:46;;;;;;;;;;;22.60;52.80;;;;;;5071630;28;20048;-63
2022/05/09 13:21:12;;;;;;;7.53;2.75;;;;;;;;;;5052410;28;20347;-63
2022/05/09 13:23:45;;;;;;;10.00;2.50;;;22.40;53.20;;;;;;5052695;28;20041;-61
2022/05/09 13:26:22;;;;;;;7.25;2.80;;;22.40;57.30;;;;;;5070453;28;20090;-62
2022/05/09 13:28:58;;;;;;;7.63;2.45;;;22.50;53.70;;;;;;5052316;28;20044;-61
2022/05/09 13:31:28;;;;;;;8.38;2.70;;;22.50;61.20;;;;;;5036090;28;20132;-60
2022/05/09 13:33:54;;;;;;;8.60;2.67;;;;;;;;;;5070624;28;20047;-60